Time;durP1;ratioP1;P1;durP2;ratioP2;P2;SDS_P1;SDS_P2;PMS_P1;PMS_P2;Temp;Humidity;BMP_temperature;BMP_pressure;BME280_temperature;BME280_humidity;BME280_pressure;Samples;Min_cycle;Max_cycle;Signal;HPM_P1;HPM_P2
2022/10/21 03:02:58;;;;;;;;;;;13.70;99.90;;;;;;5045608;23;19937;-66
2022/10/21 03:05:24;;;;;;;;;;;13.70;99.90;;;;;;5022213;28;19925;-66
2022/10/21 03:07:51;;;;;;;;;;;13.70;99.90;;;;;;5024920;28;19926;-65
2022/10/21 03:10:18;;;;;;;;;;;13.70;99.90;;;;;;5020438;28;19964;-66
2022/10/21 03:12:44;;;;;;;;;;;13.60;99.90;;;;;;5013848;28;19961;-66
2022/10/21 03:15:11;;;;;;;;;;;13.50;99.90;;;;;;5013804;28;19925;-66
2022/10/21 03:17:37;;;;;;;;;;;13.40;99.90;;;;;;4997523;28;19965;-65
2022/10/21 03:20:06;;;;;;;;;;;13.40;99.90;;;;;;5003232;28;19965;-66
2022/10/21 03:22:33;;;;;;;;;;;13.40;99.90;;;;;;5014234;28;20012;-66
2022/10/21 03:24:59;;;;;;;;;;;13.30;99.90;;;;;;5011491;28;20001;-66
2022/10/21 03:27:26;;;;;;;;;;;13.30;99.90;;;;;;5003866;28;19957;-66
2022/10/21 03:29:53;;;;;;;;;;;13.30;99.90;;;;;;5004252;28;19980;-66
2022/10/21 03:32:19;;;;;;;;;;;13.30;99.90;;;;;;5000535;28;19965;-67
2022/10/21 03:34:46;;;;;;;;;;;13.20;99.90;;;;;;5002231;28;20372;-66
2022/10/21 03:37:14;;;;;;;;;;;13.30;99.90;;;;;;5002166;28;19953;-63
2022/10/21 03:39:41;;;;;;;;;;;13.30;99.90;;;;;;5002723;28;19961;-66
2022/10/21 03:42:07;;;;;;;;;;;13.30;99.90;;;;;;5008239;28;20001;-66
2022/10/21 03:44:34;;;;;;;;;;;13.30;99.90;;;;;;5008238;28;20028;-66
2022/10/21 03:47:00;;;;;;;;;;;13.50;99.90;;;;;;4995197;28;19993;-66
2022/10/21 03:49:27;;;;;;;;;;;13.70;99.90;;;;;;5002103;28;19973;-64
2022/10/21 03:51:54;;;;;;;;;;;13.70;99.90;;;;;;5010397;28;19925;-64
2022/10/21 03:54:22;;;;;;;;;;;13.70;99.90;;;;;;5006529;28;19929;-63
2022/10/21 03:56:49;;;;;;;;;;;13.70;99.90;;;;;;5003759;28;19929;-64
2022/10/21 03:59:16;;;;;;;;;;;13.70;99.90;;;;;;5005955;28;19926;-64
2022/10/21 04:01:42;;;;;;;;;;;13.80;99.90;;;;;;4996952;28;19925;-67
2022/10/21 04:04:09;;;;;;;;;;;13.90;99.90;;;;;;5004068;28;19929;-64
2022/10/21 04:06:36;;;;;;;;;;;13.80;99.90;;;;;;5000638;28;19929;-63
2022/10/21 04:09:03;;;;;;;;;;;13.90;99.90;;;;;;4999257;28;19926;-64
2022/10/21 04:11:31;;;;;;;;;;;13.90;99.90;;;;;;5008393;28;19925;-64
2022/10/21 04:13:58;;;;;;;;;;;13.90;99.90;;;;;;5004715;28;19933;-65
2022/10/21 04:16:25;;;;;;;;;;;13.90;99.90;;;;;;5006589;28;19926;-63
2022/10/21 04:18:51;;;;;;;;;;;13.90;99.90;;;;;;5002675;28;19929;-65
2022/10/21 04:21:18;;;;;;;;;;;14.00;99.90;;;;;;5005633;28;19933;-64
2022/10/21 04:23:45;;;;;;;;;;;14.00;99.90;;;;;;5009097;28;19929;-64
2022/10/21 04:26:12;;;;;;;;;;;14.10;99.90;;;;;;5010094;28;19932;-65
2022/10/21 04:28:40;;;;;;;;;;;14.20;99.90;;;;;;5012091;28;20351;-63
2022/10/21 04:31:07;;;;;;;;;;;14.30;99.90;;;;;;5002509;28;20004;-64
2022/10/21 04:33:33;;;;;;;;;;;14.40;99.90;;;;;;5002421;28;19929;-64
2022/10/21 04:36:00;;;;;;;;;;;14.40;99.90;;;;;;4997997;28;19930;-65
2022/10/21 04:38:27;;;;;;;;;;;14.50;99.90;;;;;;5009917;28;19929;-64
2022/10/21 04:40:57;;;;;;;;;;;14.40;99.90;;;;;;5008032;28;19926;-69
2022/10/21 04:43:24;;;;;;;;;;;14.40;99.90;;;;;;5005209;28;19926;-67
2022/10/21 04:45:53;;;;;;;;;;;14.40;99.90;;;;;;4998294;28;19925;-68
2022/10/21 04:48:20;;;;;;;;;;;14.40;99.90;;;;;;5005071;28;19925;-64
2022/10/21 04:50:48;;;;;;;;;;;14.40;99.90;;;;;;5004927;28;19975;-66
2022/10/21 04:53:15;;;;;;;;;;;14.40;99.90;;;;;;5004585;28;19926;-68
2022/10/21 04:55:41;;;;;;;;;;;14.50;99.90;;;;;;4998750;28;19929;-65
2022/10/21 04:58:08;;;;;;;;;;;14.50;99.90;;;;;;4992119;28;20340;-64
2022/10/21 05:00:35;;;;;;;;;;;14.60;99.90;;;;;;5001731;28;19937;-64
2022/10/21 05:03:03;;;;;;;;;;;14.60;99.90;;;;;;5003183;28;19940;-66
2022/10/21 05:05:30;;;;;;;;;;;14.60;99.90;;;;;;4997349;28;20311;-64
2022/10/21 05:07:57;;;;;;;;;;;14.60;99.90;;;;;;4999052;28;19933;-65
2022/10/21 05:10:24;;;;;;;;;;;14.60;99.90;;;;;;5005601;28;19929;-65
2022/10/21 05:12:51;;;;;;;;;;;14.60;99.90;;;;;;5003489;28;20405;-65
2022/10/21 05:15:18;;;;;;;;;;;14.60;99.90;;;;;;5008265;28;19936;-65
2022/10/21 05:17:45;;;;;;;;;;;14.70;99.90;;;;;;5004801;28;19929;-63
2022/10/21 05:20:13;;;;;;;;;;;14.70;99.90;;;;;;4997050;28;19977;-66
2022/10/21 05:22:40;;;;;;;;;;;14.70;99.90;;;;;;5006063;28;19925;-65
2022/10/21 05:25:07;;;;;;;;;;;14.80;99.90;;;;;;5001754;28;19929;-65
2022/10/21 05:27:34;;;;;;;;;;;14.80;99.90;;;;;;5001454;28;19926;-66
2022/10/21 05:30:01;;;;;;;;;;;14.80;99.90;;;;;;5002115;28;19975;-65
2022/10/21 05:32:27;;;;;;;;;;;14.70;99.90;;;;;;5002483;28;19929;-66
2022/10/21 05:34:54;;;;;;;;;;;14.70;99.90;;;;;;5008210;28;19930;-65
2022/10/21 05:37:22;;;;;;;;;;;14.70;99.90;;;;;;4997838;28;19925;-65
2022/10/21 05:39:49;;;;;;;;;;;14.70;99.90;;;;;;4994252;28;19925;-65
2022/10/21 05:42:16;;;;;;;;;;;14.70;99.90;;;;;;5005242;28;19926;-68
2022/10/21 05:44:43;;;;;;;;;;;14.70;99.90;;;;;;5005251;28;19937;-67
2022/10/21 05:47:09;;;;;;;;;;;14.60;99.90;;;;;;5008846;28;19925;-66
2022/10/21 05:49:36;;;;;;;;;;;14.60;99.90;;;;;;4998134;28;19926;-64
2022/10/21 05:52:03;;;;;;;;;;;14.60;99.90;;;;;;5001247;28;20009;-65
2022/10/21 05:54:31;;;;;;;;;;;14.40;99.90;;;;;;5006117;28;19929;-65
2022/10/21 05:56:58;;;;;;;;;;;14.40;99.90;;;;;;5005378;28;19926;-65
2022/10/21 05:59:25;;;;;;;;;;;14.40;99.90;;;;;;5007957;28;19984;-65
2022/10/21 06:01:52;;;;;;;;;;;14.30;99.90;;;;;;5004946;28;20401;-65
2022/10/21 06:04:19;;;;;;;;;;;14.30;99.90;;;;;;4996971;28;19929;-66
2022/10/21 06:06:45;;;;;;;;;;;14.30;99.90;;;;;;5001529;28;19932;-65
2022/10/21 06:09:12;;;;;;;;;;;14.30;99.90;;;;;;5007857;28;20400;-64
2022/10/21 06:11:40;;;;;;;;;;;14.30;99.90;;;;;;5001431;28;19933;-65
2022/10/21 06:14:07;;;;;;;;;;;14.30;99.90;;;;;;5004364;28;19929;-65
2022/10/21 06:16:35;;;;;;;;;;;14.30;99.90;;;;;;4997104;28;19925;-65
2022/10/21 06:19:01;;;;;;;;;;;14.30;99.90;;;;;;4999405;28;19976;-66
2022/10/21 06:21:28;;;;;;;;;;;14.30;99.90;;;;;;5006538;28;19932;-65
2022/10/21 06:23:55;;;;;;;;;;;14.40;99.90;;;;;;4998022;28;19941;-66
2022/10/21 06:26:22;;;;;;;;;;;14.60;99.90;;;;;;5005876;28;20289;-69
2022/10/21 06:28:50;;;;;;;;;;;14.60;99.90;;;;;;5001165;28;20281;-67
2022/10/21 06:31:19;;;;;;;;;;;14.70;99.90;;;;;;4996993;28;19948;-65
2022/10/21 06:33:46;;;;;;;;;;;14.80;99.90;;;;;;5006777;28;19925;-65
2022/10/21 06:36:13;;;;;;;;;;;14.90;99.90;;;;;;4997674;28;19925;-65
2022/10/21 06:38:39;;;;;;;;;;;14.90;99.90;;;;;;5001340;28;20446;-66
2022/10/21 06:41:07;;;;;;;;;;;15.00;99.90;;;;;;4999704;28;19933;-65
2022/10/21 06:43:34;;;;;;;;;;;15.10;99.90;;;;;;5005918;28;19926;-64
2022/10/21 06:46:03;;;;;;;;;;;15.10;99.90;;;;;;5017957;28;19926;-65
2022/10/21 06:48:30;;;;;;;;;;;15.10;99.90;;;;;;5007562;28;19933;-65
2022/10/21 06:50:57;;;;;;;;;;;15.00;99.90;;;;;;4999961;28;19979;-65
2022/10/21 06:53:24;;;;;;;;;;;15.10;99.90;;;;;;5001797;28;19930;-66
2022/10/21 06:55:51;;;;;;;;;;;15.10;99.90;;;;;;5005019;28;19925;-65
2022/10/21 06:58:18;;;;;;;;;;;15.10;99.90;;;;;;4991456;28;19933;-65
2022/10/21 07:00:44;;;;;;;;;;;15.10;99.90;;;;;;5001750;28;20416;-65
2022/10/21 07:03:13;;;;;;;;;;;15.10;99.90;;;;;;5003688;28;19930;-65
2022/10/21 07:05:39;;;;;;;;;;;15.30;99.90;;;;;;4996188;28;19926;-65
2022/10/21 07:08:06;;;;;;;;;;;15.30;99.90;;;;;;4998557;28;19933;-65
2022/10/21 07:10:33;;;;;;;;;;;15.30;99.90;;;;;;5003887;28;20293;-64
2022/10/21 07:12:59;;;;;;;;;;;15.30;99.90;;;;;;4994096;28;19951;-65
2022/10/21 07:15:26;;;;;;;;;;;15.50;99.90;;;;;;4992943;28;19926;-64
2022/10/21 07:17:58;;;;;;;;;;;15.50;99.90;;;;;;4997112;28;19929;-65
2022/10/21 07:20:26;;;;;;;;;;;15.60;99.90;;;;;;5001614;28;19932;-65
2022/10/21 07:22:53;;;;;;;;;;;15.70;99.90;;;;;;5003269;28;19985;-63
2022/10/21 07:25:20;;;;;;;;;;;15.70;99.90;;;;;;4997839;28;19925;-64
2022/10/21 07:27:48;;;;;;;;;;;15.70;99.90;;;;;;5004926;28;19929;-65
2022/10/21 07:30:15;;;;;;;;;;;15.70;99.90;;;;;;5006062;28;19929;-66
2022/10/21 07:32:41;;;;;;;;;;;15.70;99.90;;;;;;5008199;28;19968;-66
2022/10/21 07:35:08;;;;;;;;;;;15.70;99.90;;;;;;4993013;28;19925;-65
2022/10/21 07:37:36;;;;;;;;;;;15.80;99.90;;;;;;5008704;28;20363;-65
2022/10/21 07:40:04;;;;;;;;;;;15.80;99.90;;;;;;5004234;28;19929;-65
2022/10/21 07:42:31;;;;;;;;;;;15.90;99.90;;;;;;4998514;28;19926;-65
2022/10/21 07:45:00;;;;;;;;;;;16.00;99.90;;;;;;5000623;28;19973;-65
2022/10/21 07:47:26;;;;;;;;;;;16.00;99.90;;;;;;5002673;28;20527;-67
2022/10/21 07:49:53;;;;;;;;;;;16.10;99.90;;;;;;5007715;28;19934;-65
2022/10/21 07:52:20;;;;;;;;;;;16.10;99.90;;;;;;5007936;28;19933;-66
2022/10/21 07:54:48;;;;;;;;;;;16.10;99.90;;;;;;5008065;28;19925;-65
2022/10/21 07:57:15;;;;;;;;;;;16.20;99.90;;;;;;5000213;28;19925;-65
2022/10/21 07:59:41;;;;;;;;;;;16.20;99.90;;;;;;5002790;28;19930;-65
2022/10/21 08:02:09;;;;;;;;;;;16.20;99.90;;;;;;5003131;28;20348;-65
2022/10/21 08:04:35;;;;;;;;;;;16.20;99.90;;;;;;4997930;28;19940;-65
2022/10/21 08:07:02;;;;;;;;;;;16.20;99.90;;;;;;5009119;28;19938;-67
2022/10/21 08:09:29;;;;;;;;;;;16.30;99.90;;;;;;5006820;28;19929;-66
2022/10/21 08:11:57;;;;;;;;;;;16.40;99.90;;;;;;5008055;28;19929;-66
2022/10/21 08:14:24;;;;;;;;;;;16.40;99.90;;;;;;5008928;28;19931;-67
2022/10/21 08:16:52;;;;;;;;;;;16.40;99.90;;;;;;5010489;28;19926;-66
2022/10/21 08:19:20;;;;;;;;;;;16.40;99.90;;;;;;5008754;28;19972;-66
2022/10/21 08:21:46;;;;;;;;;;;16.30;99.90;;;;;;5002791;28;20024;-66
2022/10/21 08:24:13;;;;;;;;;;;16.30;99.90;;;;;;5007826;28;19932;-66
2022/10/21 08:26:40;;;;;;;;;;;16.30;99.90;;;;;;4998768;28;20348;-66
2022/10/21 08:29:08;;;;;;;;;;;16.40;99.90;;;;;;4997335;28;19926;-66
2022/10/21 08:31:35;;;;;;;;;;;16.40;99.90;;;;;;5008511;28;19925;-66
2022/10/21 08:34:01;;;;;;;;;;;16.50;99.90;;;;;;4997798;28;19930;-66
2022/10/21 08:36:28;;;;;;;;;;;16.50;99.90;;;;;;4994390;28;19926;-69
2022/10/21 08:38:55;;;;;;;;;;;16.50;99.90;;;;;;5007997;28;19933;-67
2022/10/21 08:41:40;;;;;;;;;;;16.40;99.90;;;;;;5000582;28;19925;-66
2022/10/21 08:44:13;;;;;;;;;;;16.50;99.90;;;;;;5006808;28;19925;-65
2022/10/21 08:46:42;;;;;;;;;;;16.40;99.90;;;;;;5008775;28;20016;-66
2022/10/21 08:49:13;;;;;;;;;;;16.30;99.90;;;;;;4999052;28;19930;-66
2022/10/21 08:51:41;;;;;;;;;;;16.30;99.90;;;;;;5002728;28;19925;-65
2022/10/21 08:54:12;;;;;;;;;;;16.20;99.90;;;;;;5004663;28;20335;-66
2022/10/21 08:56:39;;;;;;;;;;;16.20;99.90;;;;;;5007099;28;19968;-66
2022/10/21 08:59:21;;;;;;;;;;;16.10;99.90;;;;;;5002277;28;19932;-66
2022/10/21 09:01:53;;;;;;;;;;;16.10;99.90;;;;;;5006249;28;19926;-66
2022/10/21 09:04:27;;;;;;;;;;;16.00;99.90;;;;;;5005734;28;19929;-66
2022/10/21 09:06:56;;;;;;;;;;;16.00;99.90;;;;;;5000972;28;19925;-65
2022/10/21 09:09:26;;;;;;;;;;;16.00;99.90;;;;;;5002329;28;19930;-66
2022/10/21 09:11:58;;;;;;;;;;;16.00;99.90;;;;;;5002954;28;19929;-66
2022/10/21 09:14:39;;;;;;;;;;;16.00;99.90;;;;;;5002488;28;19926;-66
2022/10/21 09:17:17;;;;;;;;;;;16.00;99.90;;;;;;5007817;28;19925;-64
2022/10/21 09:19:48;;;;;;;;;;;15.90;99.90;;;;;;5006647;28;19926;-65
2022/10/21 09:22:22;;;;;;;;;;;16.00;99.90;;;;;;4998518;28;19933;-65
2022/10/21 09:24:52;;;;;;;;;;;16.00;99.90;;;;;;5000590;28;20175;-66
2022/10/21 09:27:19;;;;;;;;;;;16.00;99.90;;;;;;4991968;28;19925;-66
2022/10/21 09:29:49;;;;;;;;;;;16.10;99.90;;;;;;5001961;28;19930;-66
2022/10/21 09:32:19;;;;;;;;;;;16.10;99.90;;;;;;5003691;28;19926;-65
2022/10/21 09:34:49;;;;;;;;;;;16.10;99.90;;;;;;4996084;28;19972;-66
2022/10/21 09:37:19;;;;;;;;;;;16.10;99.90;;;;;;4998267;28;19926;-65
2022/10/21 09:39:48;;;;;;;;;;;16.10;99.90;;;;;;5006444;28;20424;-66
2022/10/21 09:42:15;;;;;;;;;;;16.10;99.90;;;;;;4998200;28;19929;-66
2022/10/21 09:44:44;;;;;;;;;;;16.20;99.90;;;;;;5001485;28;20503;-66
2022/10/21 09:47:17;;;;;;;;;;;16.20;99.90;;;;;;4995747;28;20004;-67
2022/10/21 09:49:46;;;;;;;;;;;16.20;99.90;;;;;;4991717;28;19937;-66
2022/10/21 09:52:15;;;;;;;;;;;16.30;99.90;;;;;;4997377;28;20305;-66
2022/10/21 09:54:42;;;;;;;;;;;16.30;99.90;;;;;;5000356;28;19930;-66
2022/10/21 09:57:13;;;;;;;;;;;16.30;99.90;;;;;;5004600;28;19933;-69
2022/10/21 09:59:50;;;;;;;;;;;16.40;99.90;;;;;;5006550;28;20352;-64
2022/10/21 10:02:22;;;;;;;;;;;16.40;99.90;;;;;;4998676;28;19957;-65
2022/10/21 10:04:50;;;;;;;;;;;16.40;99.90;;;;;;5009250;28;20368;-64
2022/10/21 10:07:26;;;;;;;;;;;16.40;99.90;;;;;;4998596;28;19925;-65
2022/10/21 10:09:53;;;;;;;;;;;16.50;99.90;;;;;;5001776;28;19926;-64
2022/10/21 10:12:21;;;;;;;;;;;16.50;99.90;;;;;;5003296;28;19929;-64
2022/10/21 10:14:48;;;;;;;;;;;16.60;99.90;;;;;;4994926;28;19929;-65
2022/10/21 10:17:20;;;;;;;;;;;16.70;99.90;;;;;;5002341;28;19925;-65
2022/10/21 10:20:01;;;;;;;;;;;16.70;99.90;;;;;;5002364;28;19933;-65
2022/10/21 10:22:30;;;;;;;;;;;16.80;99.90;;;;;;4995883;28;19933;-66
2022/10/21 10:25:07;;;;;;;;;;;16.80;99.90;;;;;;5009326;28;19929;-65
2022/10/21 10:27:34;;;;;;;;;;;16.90;99.90;;;;;;5002571;28;19925;-65
2022/10/21 10:30:01;;;;;;;;;;;17.00;99.90;;;;;;4995547;28;19926;-65
2022/10/21 10:32:30;;;;;;;;;;;17.10;99.90;;;;;;5009542;28;19925;-66
2022/10/21 10:34:59;;;;;;;;;;;17.20;99.90;;;;;;4999403;28;19932;-66
2022/10/21 10:37:27;;;;;;;;;;;17.20;99.90;;;;;;5000487;28;20021;-66
2022/10/21 10:39:57;;;;;;;;;;;17.30;99.90;;;;;;5007234;28;19933;-66
2022/10/21 10:42:24;;;;;;;;;;;17.30;99.90;;;;;;4991963;28;19930;-66
2022/10/21 10:44:53;;;;;;;;;;;17.40;99.90;;;;;;5008760;28;19926;-66
2022/10/21 10:47:21;;;;;;;;;;;17.50;99.90;;;;;;5010260;28;19933;-66
2022/10/21 10:49:50;;;;;;;;;;;17.60;99.90;;;;;;5007314;28;19953;-66
2022/10/21 10:52:20;;;;;;;;;;;17.80;99.90;;;;;;4998679;28;19930;-65
2022/10/21 10:54:47;;;;;;;;;;;17.90;99.90;;;;;;4999545;28;19981;-66
2022/10/21 10:57:17;;;;;;;;;;;18.10;99.90;;;;;;5007765;28;19926;-65
2022/10/21 10:59:45;;;;;;;;;;;18.10;99.90;;;;;;5002261;28;19941;-65
2022/10/21 11:02:27;;;;;;;;;;;18.30;99.90;;;;;;5000038;28;20340;-66
2022/10/21 11:05:02;;;;;;;;;;;18.40;99.90;;;;;;5021744;28;19929;-65
2022/10/21 11:07:31;;;;;;;;;;;18.60;99.90;;;;;;5006320;28;19930;-66
2022/10/21 11:10:01;;;;;;;;;;;18.60;99.90;;;;;;5013280;28;19930;-66
2022/10/21 11:12:30;;;;;;;;;;;18.80;99.90;;;;;;5004144;28;19979;-62
2022/10/21 11:14:58;;;;;;;;;;;19.20;99.90;;;;;;5008431;28;20381;-62
2022/10/21 11:17:29;;;;;;;;;;;19.90;99.90;;;;;;5011850;28;19985;-63
2022/10/21 11:19:59;;;;;;;;;;;20.20;99.90;;;;;;5007434;28;20303;-66
2022/10/21 11:22:33;;;;;;;;;;;20.30;99.90;;;;;;5011690;28;19926;-66
2022/10/21 11:25:03;;;;;;;;;;;20.60;99.90;;;;;;5010300;28;20376;-63
2022/10/21 11:27:38;;;;;;;;;;;21.00;99.90;;;;;;5005506;28;20372;-62
2022/10/21 11:30:09;;;;;;;;;;;22.00;99.90;;;;;;5008351;28;19926;-63
2022/10/21 11:32:40;;;;;;;;;;;26.40;99.90;;;;;;4998160;28;19984;-66
2022/10/21 11:35:22;;;;;;;;;;;29.50;99.90;;;;;;5001186;28;19925;-66
2022/10/21 11:37:52;;;;;;;;;;;32.10;99.90;;;;;;5002376;28;19925;-68
2022/10/21 11:40:28;;;;;;;;;;;33.20;99.90;;;;;;5013234;28;20351;-67
2022/10/21 11:42:58;;;;;;;;;;;33.40;99.90;;;;;;5012815;28;19961;-67
2022/10/21 11:45:32;;;;;;;;;;;32.50;99.90;;;;;;5010697;28;19929;-66
2022/10/21 11:48:03;;;;;;;;;;;33.60;99.90;;;;;;5011869;28;19929;-65
2022/10/21 11:50:33;;;;;;;;;;;32.80;99.90;;;;;;5006091;28;19929;-67
2022/10/21 11:53:11;;;;;;;;;;;33.00;99.90;;;;;;5007670;28;19932;-67
2022/10/21 11:55:43;;;;;;;;;;;33.50;99.90;;;;;;5010318;28;19931;-66
2022/10/21 11:58:17;;;;;;;;;;;34.00;99.90;;;;;;5012771;28;19926;-66
2022/10/21 12:00:49;;;;;;;;;;;30.80;99.90;;;;;;5013231;28;19975;-66
2022/10/21 12:03:35;;;;;;;;;;;27.40;99.90;;;;;;5011315;28;20396;-66
2022/10/21 12:06:03;;;;;;;;;;;27.10;99.90;;;;;;4999260;28;19926;-66
2022/10/21 12:08:33;;;;;;;;;;;24.80;99.90;;;;;;5006635;28;19929;-66
2022/10/21 12:11:03;;;;;;;;;;;23.70;99.90;;;;;;5003067;28;20407;-68
2022/10/21 12:13:33;;;;;;;;;;;23.20;99.90;;;;;;5005639;28;19930;-72
2022/10/21 12:16:01;;;;;;;;;;;23.20;99.90;;;;;;4998248;28;19925;-69
2022/10/21 12:18:30;;;;;;;;;;;22.60;99.90;;;;;;4987971;28;20137;-64
2022/10/21 12:20:58;;;;;;;;;;;22.70;99.90;;;;;;5012639;28;19926;-62
2022/10/21 12:23:27;;;;;;;;;;;22.90;99.90;;;;;;5005650;28;19925;-65
2022/10/21 12:26:03;;;;;;;;;;;22.50;99.90;;;;;;5007975;28;19929;-65
2022/10/21 12:28:34;;;;;;;;;;;22.10;99.90;;;;;;5002185;28;19926;-66
2022/10/21 12:31:04;;;;;;;;;;;22.80;99.90;;;;;;5008463;28;20384;-65
2022/10/21 12:33:35;;;;;;;;;;;22.80;99.90;;;;;;5004941;28;20000;-66
2022/10/21 12:36:16;;;;;;;;;;;22.70;99.90;;;;;;5007375;28;19985;-66
2022/10/21 12:38:44;;;;;;;;;;;23.10;99.90;;;;;;4997079;28;19929;-66
2022/10/21 12:41:29;;;;;;;;;;;24.10;99.90;;;;;;5011411;28;19926;-66
2022/10/21 12:44:01;;;;;;;;;;;23.70;99.90;;;;;;5011213;28;20316;-66
2022/10/21 12:46:29;;;;;;;;;;;24.30;99.90;;;;;;5003828;28;19968;-66
2022/10/21 12:48:56;;;;;;;;;;;26.00;99.90;;;;;;4994393;28;19933;-67
2022/10/21 12:51:24;;;;;;;;;;;26.30;99.90;;;;;;5010188;28;20412;-66
2022/10/21 12:53:52;;;;;;;;;;;26.20;99.90;;;;;;4994712;28;19926;-65
2022/10/21 12:56:27;;;;;;;;;;;25.60;99.90;;;;;;5007689;28;19930;-65
2022/10/21 12:58:57;;;;;;;;;;;24.30;99.90;;;;;;5003817;28;19929;-64
2022/10/21 13:01:37;;;;;;;;;;;22.90;99.90;;;;;;5012171;28;19929;-65
2022/10/21 13:04:04;;;;;;;;;;;22.50;99.90;;;;;;5002854;28;20384;-66
2022/10/21 13:06:51;;;;;;;;;;;22.10;99.90;;;;;;5006987;28;20451;-67
2022/10/21 13:09:35;;;;;;;;;;;22.30;99.90;;;;;;4994006;28;19960;-65
2022/10/21 13:12:14;;;;;;;;;;;24.00;99.90;;;;;;5021001;28;19926;-65
2022/10/21 13:14:42;;;;;;;;;;;25.00;99.90;;;;;;5005495;28;19941;-66
2022/10/21 13:17:28;;;;;;;;;;;27.10;99.90;;;;;;5009554;28;19942;-66
2022/10/21 13:19:57;;;;;;;;;;;29.00;99.90;;;;;;5008574;28;19941;-67
2022/10/21 13:22:33;;;;;;;;;;;28.70;99.90;;;;;;5009043;28;19933;-63
2022/10/21 13:25:09;;;;;;;;;;;29.30;99.90;;;;;;5019775;28;19925;-66
2022/10/21 13:27:37;;;;;;;;;;;28.30;99.90;;;;;;5003040;28;19926;-66
2022/10/21 13:30:07;;;;;;;;;;;29.00;99.90;;;;;;5011113;28;19933;-68
2022/10/21 13:32:33;;;;;;;;;;;28.00;99.90;;;;;;5005948;28;19930;-67
2022/10/21 13:35:05;;;;;;;;;;;28.50;99.90;;;;;;5006924;28;19926;-66
2022/10/21 13:37:33;;;;;;;;;;;28.30;99.90;;;;;;5004396;28;19933;-67
2022/10/21 13:40:02;;;;;;;;;;;28.80;99.90;;;;;;5011232;28;19925;-69
2022/10/21 13:42:33;;;;;;;;;;;27.80;99.90;;;;;;5003866;28;19979;-70
2022/10/21 13:45:02;;;;;;;;;;;27.30;99.90;;;;;;4998628;28;19929;-70
2022/10/21 13:47:30;;;;;;;;;;;27.00;99.90;;;;;;5002710;28;19925;-68
2022/10/21 13:49:57;;;;;;;;;;;27.10;99.90;;;;;;5006263;28;19937;-67
2022/10/21 13:52:29;;;;;;;;;;;26.90;99.90;;;;;;5010991;28;19937;-67
2022/10/21 13:54:57;;;;;;;;;;;26.90;99.90;;;;;;5003614;28;19941;-66
2022/10/21 13:57:27;;;;;;;;;;;26.80;99.90;;;;;;5000494;28;20388;-68
2022/10/21 14:00:01;;;;;;;;;;;26.30;99.90;;;;;;5002507;28;19929;-69
2022/10/21 14:02:28;;;;;;;;;;;25.70;99.90;;;;;;5007869;28;19980;-68
2022/10/21 14:04:55;;;;;;;;;;;26.00;99.90;;;;;;5003004;28;19933;-67
2022/10/21 14:07:21;;;;;;;;;;;26.10;99.90;;;;;;5008489;28;19984;-70
2022/10/21 14:09:51;;;;;;;;;;;26.50;99.90;;;;;;5002110;28;19952;-66
2022/10/21 14:12:22;;;;;;;;;;;26.30;99.90;;;;;;5004541;28;20024;-66
2022/10/21 14:14:49;;;;;;;;;;;26.80;99.90;;;;;;5008677;28;19929;-70
2022/10/21 14:17:17;;;;;;;;;;;26.90;99.90;;;;;;5009484;28;19926;-70
2022/10/21 14:19:46;;;;;;;;;;;26.90;99.90;;;;;;5005526;28;19933;-69
2022/10/21 14:22:17;;;;;;;;;;;26.90;99.90;;;;;;5014260;28;19937;-70
2022/10/21 14:24:45;;;;;;;;;;;27.20;99.90;;;;;;5007520;28;19930;-69
2022/10/21 14:27:15;;;;;;;;;;;27.90;99.90;;;;;;5007364;28;19985;-70
2022/10/21 14:29:43;;;;;;;;;;;28.90;99.90;;;;;;5002183;28;19977;-70
2022/10/21 14:32:12;;;;;;;;;;;27.70;99.90;;;;;;5014685;28;19947;-70
2022/10/21 14:34:54;;;;;;;;;;;27.60;99.90;;;;;;5015689;28;20269;-70
2022/10/21 14:37:21;;;;;;;;;;;27.40;99.90;;;;;;5009401;28;19925;-70
2022/10/21 14:39:48;;;;;;;;;;;26.90;99.90;;;;;;5000506;28;19926;-69
2022/10/21 14:42:17;;;;;;;;;;;26.00;99.90;;;;;;5011937;28;19930;-69
2022/10/21 14:44:44;;;;;;;;;;;25.10;99.90;;;;;;5011535;28;19925;-69
2022/10/21 14:47:16;;;;;;;;;;;24.30;99.90;;;;;;5009022;28;20304;-69
2022/10/21 14:49:45;;;;;;;;;;;24.20;99.90;;;;;;5004649;28;20308;-69
2022/10/21 14:52:17;;;;;;;;;;;25.10;99.90;;;;;;5017413;28;20388;-69
2022/10/21 14:54:45;;;;;;;;;;;26.20;99.90;;;;;;5012574;28;19965;-69
2022/10/21 14:57:22;;;;;;;;;;;27.20;99.90;;;;;;5011940;28;19948;-70
2022/10/21 14:59:50;;;;;;;;;;;27.50;99.90;;;;;;5001386;28;19991;-69
2022/10/21 15:02:18;;;;;;;;;;;27.30;99.90;;;;;;5046136;23;20011;-70
2022/10/21 15:04:50;;;;;;;;;;;27.40;99.90;;;;;;5017997;28;19930;-70
2022/10/21 15:07:18;;;;;;;;;;;27.20;99.90;;;;;;5020522;28;19924;-70
2022/10/21 15:09:59;;;;;;;;;;;26.90;99.90;;;;;;5019734;28;19929;-71
2022/10/21 15:12:31;;;;;;;;;;;26.80;99.90;;;;;;5017251;28;19985;-70
2022/10/21 15:15:01;;;;;;;;;;;26.30;99.90;;;;;;5009939;28;19936;-70
2022/10/21 15:17:27;;;;;;;;;;;25.70;99.90;;;;;;5008776;28;19926;-69
2022/10/21 15:19:54;;;;;;;;;;;25.50;99.90;;;;;;5011482;28;19934;-77
2022/10/21 15:22:26;;;;;;;;;;;25.40;99.90;;;;;;5010055;28;19925;-71
2022/10/21 15:24:54;;;;;;;;;;;24.30;99.90;;;;;;5010883;28;19959;-70
2022/10/21 15:27:25;;;;;;;;;;;23.50;99.90;;;;;;5014866;28;19926;-69
2022/10/21 15:29:53;;;;;;;;;;;23.40;99.90;;;;;;5007300;28;19926;-72
2022/10/21 15:32:21;;;;;;;;;;;23.20;99.90;;;;;;5008751;28;19925;-72
2022/10/21 15:34:50;;;;;;;;;;;22.70;99.90;;;;;;5014598;28;20024;-73
2022/10/21 15:37:16;;;;;;;;;;;22.40;99.90;;;;;;5012230;28;19925;-68
2022/10/21 15:39:44;;;;;;;;;;;21.90;99.90;;;;;;5003825;28;20381;-70
2022/10/21 15:42:11;;;;;;;;;;;21.50;99.90;;;;;;5006897;28;20024;-70
2022/10/21 15:44:38;;;;;;;;;;;21.20;99.90;;;;;;5007553;28;19925;-69
2022/10/21 15:47:10;;;;;;;;;;;20.90;99.90;;;;;;4999179;28;19925;-69
2022/10/21 15:49:40;;;;;;;;;;;20.70;99.90;;;;;;4997499;28;19926;-69
2022/10/21 15:52:07;;;;;;;;;;;20.50;99.90;;;;;;5002804;28;20024;-67
2022/10/21 15:54:33;;;;;;;;;;;20.10;99.90;;;;;;5010790;28;19933;-69
2022/10/21 15:57:01;;;;;;;;;;;19.90;99.90;;;;;;5010312;28;20336;-70
2022/10/21 15:59:28;;;;;;;;;;;19.70;99.90;;;;;;5015829;28;19926;-69
2022/10/21 16:01:56;;;;;;;;;;;19.50;99.90;;;;;;5000094;28;20341;-70
2022/10/21 16:04:24;;;;;;;;;;;19.40;99.90;;;;;;5009481;28;19929;-70
2022/10/21 16:06:51;;;;;;;;;;;19.30;99.90;;;;;;5007413;28;19925;-68
2022/10/21 16:09:19;;;;;;;;;;;19.20;99.90;;;;;;5004073;28;20400;-70
2022/10/21 16:11:46;;;;;;;;;;;19.10;99.90;;;;;;5009944;28;19968;-70
2022/10/21 16:14:13;;;;;;;;;;;19.10;99.90;;;;;;5004050;28;19983;-69
2022/10/21 16:16:43;;;;;;;;;;;19.00;99.90;;;;;;5005359;28;19926;-70
2022/10/21 16:19:10;;;;;;;;;;;18.90;99.90;;;;;;5004799;28;19987;-69
2022/10/21 16:21:38;;;;;;;;;;;18.80;99.90;;;;;;5003884;28;19930;-69
2022/10/21 16:24:05;;;;;;;;;;;18.70;99.90;;;;;;5001572;28;19926;-65
2022/10/21 16:26:33;;;;;;;;;;;18.70;99.90;;;;;;5012146;28;19925;-65
2022/10/21 16:29:00;;;;;;;;;;;18.60;99.90;;;;;;4999266;28;20047;-68
2022/10/21 16:31:29;;;;;;;;;;;18.50;99.90;;;;;;5003718;28;19989;-69
2022/10/21 16:33:56;;;;;;;;;;;18.40;99.90;;;;;;5005971;28;19929;-74
2022/10/21 16:36:24;;;;;;;;;;;18.40;99.90;;;;;;5008261;28;20024;-69
2022/10/21 16:38:52;;;;;;;;;;;18.30;99.90;;;;;;5000418;28;19948;-69
2022/10/21 16:41:20;;;;;;;;;;;18.20;99.90;;;;;;5005725;28;19933;-67
2022/10/21 16:43:47;;;;;;;;;;;18.10;99.90;;;;;;5001313;28;19941;-70
2022/10/21 16:46:16;;;;;;;;;;;18.00;99.90;;;;;;5004065;28;19926;-69
2022/10/21 16:48:43;;;;;;;;;;;18.00;99.90;;;;;;5004969;28;19936;-70
2022/10/21 16:51:10;;;;;;;;;;;17.90;99.90;;;;;;5001857;28;19952;-70
2022/10/21 16:53:37;;;;;;;;;;;17.90;99.90;;;;;;5005139;28;19925;-69
2022/10/21 16:56:06;;;;;;;;;;;17.80;99.90;;;;;;5010160;28;19933;-68
2022/10/21 16:58:33;;;;;;;;;;;17.70;99.90;;;;;;5005607;28;20435;-69
2022/10/21 17:00:59;;;;;;;;;;;17.70;99.90;;;;;;5002276;28;19941;-69
2022/10/21 17:03:26;;;;;;;;;;;17.70;99.90;;;;;;5005497;28;19929;-70
2022/10/21 17:05:53;;;;;;;;;;;17.70;99.90;;;;;;5005084;28;20004;-68
2022/10/21 17:08:20;;;;;;;;;;;17.60;99.90;;;;;;5002567;28;19926;-70
2022/10/21 17:10:46;;;;;;;;;;;17.60;99.90;;;;;;5004185;28;19925;-68
2022/10/21 17:13:15;;;;;;;;;;;17.60;99.90;;;;;;5001233;28;19933;-68
2022/10/21 17:15:41;;;;;;;;;;;17.50;99.90;;;;;;5008325;28;19933;-68
2022/10/21 17:18:08;;;;;;;;;;;17.50;99.90;;;;;;5005379;28;20466;-68
2022/10/21 17:20:35;;;;;;;;;;;17.40;99.90;;;;;;5009257;28;19934;-68
2022/10/21 17:23:03;;;;;;;;;;;17.20;99.90;;;;;;5009875;28;19925;-68
2022/10/21 17:25:30;;;;;;;;;;;17.10;99.90;;;;;;5007999;28;19929;-68
2022/10/21 17:27:57;;;;;;;;;;;17.00;99.90;;;;;;5010265;28;19925;-68